WATTWPDL

Guest
Details From WATT - Kupang El Tari
To WPDL - Dili Presidente Nicolau Lobato Intl
Flight Number -
Tags decoded
Created
Modified
Stats Distance 151 nm / 280 km
Max Altitude 0 ft / 0 m
Waypoints 3
Social Downloads 0
Likes 0
Share

Download

Looking for another format? Having issues loading an existing format? Contact us
Advertisement - Login to hide

Notes

Requested: WATT OTORA WPDL

Route

WATT OTORA WPDL

ID Type Via Altitude (ft/m) Position (lat/lon) Dist (leg/tot) Name
O WATT APT - 0 / 0 -10.17340 / 123.66771 - / 0 nm Kupang El Tari
OTORA FIX - 0 / 0 -8.63343 / 125.09406 125 / 125 nm
O WPDL APT - 0 / 0 -8.54655 / 125.52472 26 / 151 nm Dili Presidente Nicolau Lobato Intl

Altitude Profile

Advertisement - Login to hide

WATT

Details ICAO WATT (KOE)
Name Kupang El Tari
Region Indonesia
Timezone Asia/Makassar (UTC+8.0)
Stats Elevation 333 ft / 101 m (AMSL)
Location -10.171500° 123.671000°
Runways 1
Magnetic Variation 1.233° E

METAR

WATT 220830Z 14011KT 9999 BKN016 31/20 Q1008 NOSIG

Decode

TAF

TAF WATT 220500Z 2206/2306 15013KT 9999 SCT017 BECMG 2212/2214 10006KT

Decode

Departure Runways

ID Width Length Bearing (true/mag) Surface Threshold Overrun Markings Lighting
07 148 ft / 45 m 8,210 ft / 2,502 m 76.50° / 75.27° ASPHALT 0 ft / 0 m 0 ft / 0 m PREC-APP EDGE THRESHOLD REIL-OMNI
25 148 ft / 45 m 8,210 ft / 2,502 m 256.50° / 255.27° ASPHALT 0 ft / 0 m 0 ft / 0 m PREC-APP EDGE THRESHOLD ALSF-I REIL-OMNI

WPDL

Details ICAO WPDL (DIL)
Name Presidente Nicolau Lobato
Region Timor-Leste
Timezone Unknown
Stats Elevation 28 ft / 9 m (AMSL)
Location -8.546500° 125.525000°
Runways 1
Magnetic Variation 1.227° E

METAR

Not found

TAF

TAF WPDL 220431Z 2206/2218 34008KT 9999 FEW040 FM221100 16005KT CAVOK

Decode

Destination Runways

ID Width Length Bearing (true/mag) Surface Threshold Overrun Markings Lighting
07 99 ft / 30 m 6,076 ft / 1,852 m 77.08° / 75.85° ASPHALT 0 ft / 0 m 89 ft / 27 m PREC-APP CENTERLINE EDGE THRESHOLD MALSF
25 99 ft / 30 m 6,076 ft / 1,852 m 257.08° / 255.85° ASPHALT 0 ft / 0 m 105 ft / 32 m PREC-APP CENTERLINE EDGE THRESHOLD MALSF

Popular Alternatives